sensor_id;sensor_type;location;lat;lon;timestamp;P1;durP1;ratioP1;P2;durP2;ratioP2
14205;SDS011;7186;48.800;9.216;2022-08-04T00:00:39;4.63;;;3.73;;
14205;SDS011;7186;48.800;9.216;2022-08-04T00:03:09;3.97;;;3.37;;
14205;SDS011;7186;48.800;9.216;2022-08-04T00:08:29;3.80;;;3.23;;
14205;SDS011;7186;48.800;9.216;2022-08-04T00:10:58;7.90;;;3.77;;
14205;SDS011;7186;48.800;9.216;2022-08-04T00:13:25;4.10;;;3.50;;
14205;SDS011;7186;48.800;9.216;2022-08-04T00:15:57;5.10;;;3.83;;
14205;SDS011;7186;48.800;9.216;2022-08-04T00:18:25;5.50;;;3.73;;
14205;SDS011;7186;48.800;9.216;2022-08-04T00:20:51;4.07;;;3.40;;
14205;SDS011;7186;48.800;9.216;2022-08-04T00:23:17;5.10;;;3.50;;
14205;SDS011;7186;48.800;9.216;2022-08-04T00:25:42;4.57;;;3.77;;
14205;SDS011;7186;48.800;9.216;2022-08-04T00:28:08;5.03;;;3.80;;
14205;SDS011;7186;48.800;9.216;2022-08-04T00:30:34;4.43;;;3.77;;
14205;SDS011;7186;48.800;9.216;2022-08-04T00:32:59;4.97;;;3.47;;
14205;SDS011;7186;48.800;9.216;2022-08-04T00:35:25;5.03;;;3.70;;
14205;SDS011;7186;48.800;9.216;2022-08-04T00:37:51;5.03;;;3.63;;
14205;SDS011;7186;48.800;9.216;2022-08-04T00:42:52;6.43;;;3.83;;
14205;SDS011;7186;48.800;9.216;2022-08-04T00:48:00;5.50;;;3.40;;
14205;SDS011;7186;48.800;9.216;2022-08-04T00:58:20;5.93;;;3.80;;
14205;SDS011;7186;48.800;9.216;2022-08-04T01:03:20;5.73;;;3.83;;
14205;SDS011;7186;48.800;9.216;2022-08-04T01:13:25;3.77;;;3.30;;
14205;SDS011;7186;48.800;9.216;2022-08-04T01:18:26;7.90;;;4.23;;
14205;SDS011;7186;48.800;9.216;2022-08-04T01:21:37;6.17;;;4.20;;
14205;SDS011;7186;48.800;9.216;2022-08-04T01:26:12;5.93;;;4.33;;
14205;SDS011;7186;48.800;9.216;2022-08-04T01:31:27;7.10;;;4.10;;
14205;SDS011;7186;48.800;9.216;2022-08-04T01:33:55;5.53;;;3.50;;
14205;SDS011;7186;48.800;9.216;2022-08-04T01:36:23;6.30;;;3.93;;
14205;SDS011;7186;48.800;9.216;2022-08-04T01:38:48;4.23;;;3.83;;
14205;SDS011;7186;48.800;9.216;2022-08-04T01:41:14;5.53;;;4.70;;
14205;SDS011;7186;48.800;9.216;2022-08-04T01:43:40;5.20;;;4.10;;
14205;SDS011;7186;48.800;9.216;2022-08-04T01:46:05;5.07;;;3.73;;
14205;SDS011;7186;48.800;9.216;2022-08-04T01:48:30;7.93;;;4.33;;
14205;SDS011;7186;48.800;9.216;2022-08-04T01:50:57;8.27;;;4.90;;
14205;SDS011;7186;48.800;9.216;2022-08-04T01:53:27;5.93;;;4.60;;
14205;SDS011;7186;48.800;9.216;2022-08-04T01:55:53;6.97;;;4.40;;
14205;SDS011;7186;48.800;9.216;2022-08-04T01:58:20;11.07;;;5.07;;
14205;SDS011;7186;48.800;9.216;2022-08-04T02:00:49;5.27;;;4.53;;
14205;SDS011;7186;48.800;9.216;2022-08-04T02:03:19;8.60;;;4.43;;
14205;SDS011;7186;48.800;9.216;2022-08-04T02:05:46;5.17;;;4.00;;
14205;SDS011;7186;48.800;9.216;2022-08-04T02:08:24;6.57;;;4.60;;
14205;SDS011;7186;48.800;9.216;2022-08-04T02:13:26;7.10;;;4.23;;
14205;SDS011;7186;48.800;9.216;2022-08-04T02:18:53;8.20;;;3.97;;
14205;SDS011;7186;48.800;9.216;2022-08-04T02:21:22;5.70;;;3.50;;
14205;SDS011;7186;48.800;9.216;2022-08-04T02:23:50;5.50;;;3.83;;
14205;SDS011;7186;48.800;9.216;2022-08-04T02:26:20;5.80;;;3.83;;
14205;SDS011;7186;48.800;9.216;2022-08-04T02:28:47;6.77;;;3.60;;
14205;SDS011;7186;48.800;9.216;2022-08-04T02:31:13;4.33;;;3.37;;
14205;SDS011;7186;48.800;9.216;2022-08-04T02:33:42;4.07;;;3.57;;
14205;SDS011;7186;48.800;9.216;2022-08-04T02:36:09;5.47;;;3.37;;
14205;SDS011;7186;48.800;9.216;2022-08-04T02:38:39;6.50;;;3.30;;
14205;SDS011;7186;48.800;9.216;2022-08-04T02:41:07;3.60;;;2.87;;
14205;SDS011;7186;48.800;9.216;2022-08-04T02:43:33;9.40;;;3.30;;
14205;SDS011;7186;48.800;9.216;2022-08-04T02:45:59;9.23;;;3.30;;
14205;SDS011;7186;48.800;9.216;2022-08-04T02:48:26;3.63;;;3.10;;
14205;SDS011;7186;48.800;9.216;2022-08-04T02:50:52;5.27;;;3.60;;
14205;SDS011;7186;48.800;9.216;2022-08-04T02:53:20;4.87;;;3.20;;
14205;SDS011;7186;48.800;9.216;2022-08-04T02:55:45;3.90;;;3.47;;
14205;SDS011;7186;48.800;9.216;2022-08-04T02:58:12;4.87;;;3.50;;
14205;SDS011;7186;48.800;9.216;2022-08-04T03:00:39;4.00;;;3.50;;
14205;SDS011;7186;48.800;9.216;2022-08-04T03:05:43;6.77;;;3.97;;
14205;SDS011;7186;48.800;9.216;2022-08-04T03:16:38;3.97;;;3.27;;
14205;SDS011;7186;48.800;9.216;2022-08-04T03:21:52;4.73;;;3.00;;
14205;SDS011;7186;48.800;9.216;2022-08-04T03:27:11;6.30;;;3.53;;
14205;SDS011;7186;48.800;9.216;2022-08-04T03:32:29;6.87;;;4.00;;
14205;SDS011;7186;48.800;9.216;2022-08-04T03:35:10;5.07;;;3.60;;
14205;SDS011;7186;48.800;9.216;2022-08-04T03:48:08;6.40;;;3.77;;
14205;SDS011;7186;48.800;9.216;2022-08-04T04:00:46;8.67;;;4.07;;
14205;SDS011;7186;48.800;9.216;2022-08-04T04:06:02;5.67;;;4.40;;
14205;SDS011;7186;48.800;9.216;2022-08-04T04:16:24;4.60;;;4.10;;
14205;SDS011;7186;48.800;9.216;2022-08-04T04:21:48;7.70;;;4.57;;
14205;SDS011;7186;48.800;9.216;2022-08-04T04:31:44;6.90;;;4.40;;
14205;SDS011;7186;48.800;9.216;2022-08-04T04:44:51;9.27;;;4.50;;
14205;SDS011;7186;48.800;9.216;2022-08-04T04:47:26;5.53;;;3.70;;
14205;SDS011;7186;48.800;9.216;2022-08-04T04:49:56;4.73;;;3.57;;
14205;SDS011;7186;48.800;9.216;2022-08-04T04:52:44;8.03;;;3.43;;
14205;SDS011;7186;48.800;9.216;2022-08-04T04:55:14;9.33;;;4.00;;
14205;SDS011;7186;48.800;9.216;2022-08-04T04:57:42;4.20;;;3.73;;
14205;SDS011;7186;48.800;9.216;2022-08-04T05:00:09;4.17;;;3.77;;
14205;SDS011;7186;48.800;9.216;2022-08-04T05:07:59;6.77;;;3.90;;
14205;SDS011;7186;48.800;9.216;2022-08-04T05:13:22;9.83;;;4.67;;
14205;SDS011;7186;48.800;9.216;2022-08-04T05:15:59;9.67;;;4.83;;
14205;SDS011;7186;48.800;9.216;2022-08-04T05:18:26;7.53;;;4.13;;
14205;SDS011;7186;48.800;9.216;2022-08-04T05:20:56;4.33;;;3.90;;
14205;SDS011;7186;48.800;9.216;2022-08-04T05:23:24;7.90;;;4.20;;
14205;SDS011;7186;48.800;9.216;2022-08-04T05:25:58;6.90;;;4.67;;
14205;SDS011;7186;48.800;9.216;2022-08-04T05:28:25;9.10;;;4.07;;
14205;SDS011;7186;48.800;9.216;2022-08-04T05:30:56;7.07;;;4.23;;
14205;SDS011;7186;48.800;9.216;2022-08-04T05:33:26;5.87;;;3.97;;
14205;SDS011;7186;48.800;9.216;2022-08-04T05:35:54;5.17;;;3.37;;
14205;SDS011;7186;48.800;9.216;2022-08-04T05:38:21;38.20;;;9.30;;
14205;SDS011;7186;48.800;9.216;2022-08-04T05:40:47;6.00;;;4.10;;
14205;SDS011;7186;48.800;9.216;2022-08-04T05:43:16;7.80;;;3.50;;
14205;SDS011;7186;48.800;9.216;2022-08-04T05:45:42;4.43;;;3.50;;
14205;SDS011;7186;48.800;9.216;2022-08-04T05:48:07;6.87;;;3.80;;
14205;SDS011;7186;48.800;9.216;2022-08-04T05:50:33;8.27;;;3.90;;
14205;SDS011;7186;48.800;9.216;2022-08-04T05:52:59;6.63;;;4.10;;
14205;SDS011;7186;48.800;9.216;2022-08-04T05:55:25;9.27;;;4.10;;
14205;SDS011;7186;48.800;9.216;2022-08-04T05:57:51;8.37;;;4.00;;
14205;SDS011;7186;48.800;9.216;2022-08-04T06:00:17;7.27;;;3.33;;
14205;SDS011;7186;48.800;9.216;2022-08-04T06:02:43;9.63;;;3.93;;
14205;SDS011;7186;48.800;9.216;2022-08-04T06:05:09;7.83;;;3.63;;
14205;SDS011;7186;48.800;9.216;2022-08-04T06:07:35;4.97;;;4.17;;
14205;SDS011;7186;48.800;9.216;2022-08-04T06:10:00;9.27;;;3.77;;
14205;SDS011;7186;48.800;9.216;2022-08-04T06:12:29;5.47;;;4.07;;
14205;SDS011;7186;48.800;9.216;2022-08-04T06:14:56;5.13;;;3.83;;
14205;SDS011;7186;48.800;9.216;2022-08-04T06:17:22;6.70;;;3.90;;
14205;SDS011;7186;48.800;9.216;2022-08-04T06:19:48;8.40;;;4.17;;
14205;SDS011;7186;48.800;9.216;2022-08-04T06:22:15;8.47;;;4.23;;
14205;SDS011;7186;48.800;9.216;2022-08-04T06:24:42;9.33;;;4.63;;
14205;SDS011;7186;48.800;9.216;2022-08-04T06:27:09;7.07;;;4.00;;
14205;SDS011;7186;48.800;9.216;2022-08-04T06:29:34;4.63;;;4.13;;
14205;SDS011;7186;48.800;9.216;2022-08-04T06:32:03;12.03;;;4.27;;
14205;SDS011;7186;48.800;9.216;2022-08-04T06:34:38;6.53;;;3.83;;
14205;SDS011;7186;48.800;9.216;2022-08-04T06:37:03;6.43;;;4.20;;
14205;SDS011;7186;48.800;9.216;2022-08-04T06:39:30;5.73;;;4.17;;
14205;SDS011;7186;48.800;9.216;2022-08-04T06:41:56;10.67;;;4.60;;
14205;SDS011;7186;48.800;9.216;2022-08-04T06:44:21;6.93;;;4.13;;
14205;SDS011;7186;48.800;9.216;2022-08-04T06:46:48;6.83;;;4.17;;
14205;SDS011;7186;48.800;9.216;2022-08-04T06:49:14;8.37;;;4.10;;
14205;SDS011;7186;48.800;9.216;2022-08-04T06:51:41;6.57;;;3.80;;
14205;SDS011;7186;48.800;9.216;2022-08-04T06:54:07;14.73;;;4.30;;
14205;SDS011;7186;48.800;9.216;2022-08-04T06:56:33;4.80;;;3.90;;
14205;SDS011;7186;48.800;9.216;2022-08-04T06:58:59;7.03;;;4.00;;
14205;SDS011;7186;48.800;9.216;2022-08-04T07:01:25;5.90;;;4.00;;
14205;SDS011;7186;48.800;9.216;2022-08-04T07:03:52;6.83;;;3.70;;
14205;SDS011;7186;48.800;9.216;2022-08-04T07:06:17;7.13;;;3.90;;
14205;SDS011;7186;48.800;9.216;2022-08-04T07:08:43;8.63;;;3.90;;
14205;SDS011;7186;48.800;9.216;2022-08-04T07:11:08;5.97;;;4.17;;
14205;SDS011;7186;48.800;9.216;2022-08-04T07:13:33;7.57;;;4.63;;
14205;SDS011;7186;48.800;9.216;2022-08-04T07:16:00;6.67;;;4.10;;
14205;SDS011;7186;48.800;9.216;2022-08-04T07:18:25;9.07;;;5.63;;
14205;SDS011;7186;48.800;9.216;2022-08-04T07:20:51;6.73;;;4.50;;
14205;SDS011;7186;48.800;9.216;2022-08-04T07:23:21;5.23;;;4.33;;
14205;SDS011;7186;48.800;9.216;2022-08-04T07:25:51;7.23;;;4.30;;
14205;SDS011;7186;48.800;9.216;2022-08-04T07:28:16;7.80;;;3.60;;
14205;SDS011;7186;48.800;9.216;2022-08-04T07:30:42;11.83;;;4.03;;
14205;SDS011;7186;48.800;9.216;2022-08-04T07:33:08;6.53;;;3.80;;
14205;SDS011;7186;48.800;9.216;2022-08-04T07:35:34;5.67;;;3.50;;
14205;SDS011;7186;48.800;9.216;2022-08-04T07:38:01;8.63;;;3.83;;
14205;SDS011;7186;48.800;9.216;2022-08-04T07:40:26;4.73;;;3.57;;
14205;SDS011;7186;48.800;9.216;2022-08-04T07:42:52;7.00;;;3.60;;
14205;SDS011;7186;48.800;9.216;2022-08-04T07:45:18;9.43;;;3.80;;
14205;SDS011;7186;48.800;9.216;2022-08-04T07:47:44;13.30;;;3.77;;
14205;SDS011;7186;48.800;9.216;2022-08-04T07:50:09;11.90;;;3.97;;
14205;SDS011;7186;48.800;9.216;2022-08-04T07:52:36;8.33;;;3.67;;
14205;SDS011;7186;48.800;9.216;2022-08-04T07:55:02;6.63;;;3.83;;
14205;SDS011;7186;48.800;9.216;2022-08-04T07:57:27;7.13;;;4.00;;
14205;SDS011;7186;48.800;9.216;2022-08-04T07:59:53;9.40;;;3.90;;
14205;SDS011;7186;48.800;9.216;2022-08-04T08:02:19;6.73;;;3.57;;
14205;SDS011;7186;48.800;9.216;2022-08-04T08:04:45;6.23;;;3.57;;
14205;SDS011;7186;48.800;9.216;2022-08-04T08:07:11;5.60;;;3.33;;
14205;SDS011;7186;48.800;9.216;2022-08-04T08:09:36;7.40;;;3.60;;
14205;SDS011;7186;48.800;9.216;2022-08-04T08:12:02;9.47;;;4.00;;
14205;SDS011;7186;48.800;9.216;2022-08-04T08:14:28;6.20;;;3.33;;
14205;SDS011;7186;48.800;9.216;2022-08-04T08:16:54;9.37;;;3.43;;
14205;SDS011;7186;48.800;9.216;2022-08-04T08:19:19;7.43;;;3.60;;
14205;SDS011;7186;48.800;9.216;2022-08-04T08:21:46;6.33;;;3.37;;
14205;SDS011;7186;48.800;9.216;2022-08-04T08:24:13;6.40;;;2.97;;
14205;SDS011;7186;48.800;9.216;2022-08-04T08:26:39;6.30;;;3.37;;
14205;SDS011;7186;48.800;9.216;2022-08-04T08:29:04;5.37;;;2.80;;
14205;SDS011;7186;48.800;9.216;2022-08-04T08:31:29;5.80;;;3.10;;
14205;SDS011;7186;48.800;9.216;2022-08-04T08:33:55;9.43;;;3.70;;
14205;SDS011;7186;48.800;9.216;2022-08-04T08:46:24;4.27;;;3.60;;
14205;SDS011;7186;48.800;9.216;2022-08-04T08:51:44;3.80;;;3.30;;
14205;SDS011;7186;48.800;9.216;2022-08-04T08:54:23;4.10;;;3.27;;
14205;SDS011;7186;48.800;9.216;2022-08-04T08:59:34;5.17;;;3.77;;
14205;SDS011;7186;48.800;9.216;2022-08-04T09:04:53;4.23;;;3.60;;
14205;SDS011;7186;48.800;9.216;2022-08-04T09:12:24;5.07;;;3.40;;
14205;SDS011;7186;48.800;9.216;2022-08-04T09:14:53;4.70;;;3.03;;
14205;SDS011;7186;48.800;9.216;2022-08-04T09:17:29;6.20;;;3.20;;
14205;SDS011;7186;48.800;9.216;2022-08-04T09:20:02;5.60;;;3.30;;
14205;SDS011;7186;48.800;9.216;2022-08-04T09:22:38;4.73;;;3.03;;
14205;SDS011;7186;48.800;9.216;2022-08-04T09:25:10;3.87;;;2.93;;
14205;SDS011;7186;48.800;9.216;2022-08-04T09:27:43;7.03;;;3.40;;
14205;SDS011;7186;48.800;9.216;2022-08-04T09:30:11;3.67;;;3.23;;
14205;SDS011;7186;48.800;9.216;2022-08-04T09:35:09;5.90;;;3.60;;
14205;SDS011;7186;48.800;9.216;2022-08-04T09:37:39;5.83;;;3.00;;
14205;SDS011;7186;48.800;9.216;2022-08-04T09:40:10;8.70;;;3.20;;
14205;SDS011;7186;48.800;9.216;2022-08-04T09:47:52;3.50;;;3.13;;
14205;SDS011;7186;48.800;9.216;2022-08-04T09:50:25;4.17;;;3.50;;
14205;SDS011;7186;48.800;9.216;2022-08-04T10:00:18;4.37;;;3.30;;
14205;SDS011;7186;48.800;9.216;2022-08-04T10:03:02;4.77;;;3.27;;
14205;SDS011;7186;48.800;9.216;2022-08-04T10:05:43;4.17;;;2.93;;
14205;SDS011;7186;48.800;9.216;2022-08-04T10:08:16;4.97;;;3.30;;
14205;SDS011;7186;48.800;9.216;2022-08-04T10:13:16;6.43;;;3.23;;
14205;SDS011;7186;48.800;9.216;2022-08-04T10:16:44;4.63;;;4.07;;
14205;SDS011;7186;48.800;9.216;2022-08-04T10:18:39;4.97;;;3.00;;
14205;SDS011;7186;48.800;9.216;2022-08-04T10:21:30;4.47;;;2.90;;
14205;SDS011;7186;48.800;9.216;2022-08-04T10:26:32;3.27;;;2.97;;
14205;SDS011;7186;48.800;9.216;2022-08-04T10:29:03;6.30;;;2.87;;
14205;SDS011;7186;48.800;9.216;2022-08-04T10:31:32;3.10;;;2.60;;
14205;SDS011;7186;48.800;9.216;2022-08-04T10:34:15;2.87;;;2.67;;
14205;SDS011;7186;48.800;9.216;2022-08-04T10:39:17;5.67;;;3.07;;
14205;SDS011;7186;48.800;9.216;2022-08-04T10:41:49;4.37;;;2.70;;
14205;SDS011;7186;48.800;9.216;2022-08-04T10:47:00;3.43;;;2.60;;
14205;SDS011;7186;48.800;9.216;2022-08-04T10:57:06;3.00;;;2.60;;
14205;SDS011;7186;48.800;9.216;2022-08-04T11:02:50;2.47;;;2.13;;
14205;SDS011;7186;48.800;9.216;2022-08-04T11:07:40;3.00;;;2.27;;
14205;SDS011;7186;48.800;9.216;2022-08-04T11:10:07;3.40;;;2.43;;
14205;SDS011;7186;48.800;9.216;2022-08-04T11:12:33;4.17;;;2.47;;
14205;SDS011;7186;48.800;9.216;2022-08-04T11:15:06;5.10;;;2.40;;
14205;SDS011;7186;48.800;9.216;2022-08-04T11:17:49;3.10;;;2.80;;
14205;SDS011;7186;48.800;9.216;2022-08-04T11:23:16;2.90;;;2.70;;
14205;SDS011;7186;48.800;9.216;2022-08-04T11:25:51;3.07;;;2.67;;
14205;SDS011;7186;48.800;9.216;2022-08-04T11:28:28;2.73;;;2.50;;
14205;SDS011;7186;48.800;9.216;2022-08-04T11:38:45;3.27;;;2.57;;
14205;SDS011;7186;48.800;9.216;2022-08-04T11:41:12;2.83;;;2.60;;
14205;SDS011;7186;48.800;9.216;2022-08-04T11:43:48;3.23;;;2.50;;
14205;SDS011;7186;48.800;9.216;2022-08-04T11:46:17;6.93;;;2.63;;
14205;SDS011;7186;48.800;9.216;2022-08-04T11:51:36;3.07;;;2.40;;
14205;SDS011;7186;48.800;9.216;2022-08-04T11:54:02;2.87;;;2.67;;
14205;SDS011;7186;48.800;9.216;2022-08-04T11:56:28;2.87;;;2.57;;
14205;SDS011;7186;48.800;9.216;2022-08-04T11:58:54;5.10;;;2.70;;
14205;SDS011;7186;48.800;9.216;2022-08-04T12:01:46;5.27;;;2.67;;
14205;SDS011;7186;48.800;9.216;2022-08-04T12:06:54;2.60;;;2.40;;
14205;SDS011;7186;48.800;9.216;2022-08-04T12:11:59;3.00;;;2.70;;
14205;SDS011;7186;48.800;9.216;2022-08-04T12:17:02;4.43;;;2.73;;
14205;SDS011;7186;48.800;9.216;2022-08-04T12:19:37;3.10;;;2.80;;
14205;SDS011;7186;48.800;9.216;2022-08-04T12:22:04;3.30;;;2.70;;
14205;SDS011;7186;48.800;9.216;2022-08-04T12:24:33;5.10;;;2.67;;
14205;SDS011;7186;48.800;9.216;2022-08-04T12:27:03;3.07;;;2.60;;
14205;SDS011;7186;48.800;9.216;2022-08-04T12:29:32;4.60;;;2.90;;
14205;SDS011;7186;48.800;9.216;2022-08-04T12:40:27;5.53;;;3.27;;
14205;SDS011;7186;48.800;9.216;2022-08-04T12:43:16;3.30;;;3.00;;
14205;SDS011;7186;48.800;9.216;2022-08-04T12:45:43;4.97;;;3.03;;
14205;SDS011;7186;48.800;9.216;2022-08-04T12:48:08;2.90;;;2.60;;
14205;SDS011;7186;48.800;9.216;2022-08-04T12:50:34;4.27;;;3.00;;
14205;SDS011;7186;48.800;9.216;2022-08-04T12:53:00;3.97;;;2.90;;
14205;SDS011;7186;48.800;9.216;2022-08-04T12:55:28;3.03;;;2.73;;
14205;SDS011;7186;48.800;9.216;2022-08-04T12:57:53;5.33;;;2.57;;
14205;SDS011;7186;48.800;9.216;2022-08-04T13:00:26;6.03;;;2.70;;
14205;SDS011;7186;48.800;9.216;2022-08-04T13:02:52;2.87;;;2.53;;
14205;SDS011;7186;48.800;9.216;2022-08-04T13:05:18;5.53;;;2.80;;
14205;SDS011;7186;48.800;9.216;2022-08-04T13:07:46;3.00;;;2.70;;
14205;SDS011;7186;48.800;9.216;2022-08-04T13:10:13;3.20;;;2.80;;
14205;SDS011;7186;48.800;9.216;2022-08-04T13:12:38;3.33;;;2.40;;
14205;SDS011;7186;48.800;9.216;2022-08-04T13:15:07;2.70;;;2.50;;
14205;SDS011;7186;48.800;9.216;2022-08-04T13:17:50;3.20;;;2.90;;
14205;SDS011;7186;48.800;9.216;2022-08-04T13:20:16;3.10;;;2.80;;
14205;SDS011;7186;48.800;9.216;2022-08-04T13:22:42;3.27;;;2.83;;
14205;SDS011;7186;48.800;9.216;2022-08-04T13:25:07;5.43;;;2.90;;
14205;SDS011;7186;48.800;9.216;2022-08-04T13:27:34;3.28;;;2.80;;
14205;SDS011;7186;48.800;9.216;2022-08-04T13:30:02;3.30;;;2.80;;
14205;SDS011;7186;48.800;9.216;2022-08-04T13:32:28;3.42;;;2.65;;
14205;SDS011;7186;48.800;9.216;2022-08-04T13:34:54;2.70;;;2.50;;
14205;SDS011;7186;48.800;9.216;2022-08-04T13:37:21;3.10;;;2.60;;
14205;SDS011;7186;48.800;9.216;2022-08-04T13:39:48;2.95;;;2.65;;
14205;SDS011;7186;48.800;9.216;2022-08-04T13:42:14;4.80;;;2.83;;
14205;SDS011;7186;48.800;9.216;2022-08-04T13:44:42;3.08;;;2.65;;
14205;SDS011;7186;48.800;9.216;2022-08-04T13:47:13;2.65;;;2.45;;
14205;SDS011;7186;48.800;9.216;2022-08-04T13:49:39;2.85;;;2.65;;
14205;SDS011;7186;48.800;9.216;2022-08-04T13:52:06;5.32;;;2.78;;
14205;SDS011;7186;48.800;9.216;2022-08-04T13:54:42;3.47;;;2.90;;
14205;SDS011;7186;48.800;9.216;2022-08-04T13:57:10;4.40;;;2.72;;
14205;SDS011;7186;48.800;9.216;2022-08-04T13:59:36;3.15;;;2.85;;
14205;SDS011;7186;48.800;9.216;2022-08-04T14:02:11;3.00;;;2.75;;
14205;SDS011;7186;48.800;9.216;2022-08-04T14:04:40;2.70;;;2.50;;
14205;SDS011;7186;48.800;9.216;2022-08-04T14:07:14;3.13;;;2.83;;
14205;SDS011;7186;48.800;9.216;2022-08-04T14:09:40;3.10;;;2.88;;
14205;SDS011;7186;48.800;9.216;2022-08-04T14:12:07;3.25;;;2.90;;
14205;SDS011;7186;48.800;9.216;2022-08-04T14:14:34;3.17;;;2.88;;
14205;SDS011;7186;48.800;9.216;2022-08-04T14:27:20;3.13;;;2.90;;
14205;SDS011;7186;48.800;9.216;2022-08-04T14:29:45;3.08;;;2.78;;
14205;SDS011;7186;48.800;9.216;2022-08-04T14:32:10;3.28;;;2.92;;
14205;SDS011;7186;48.800;9.216;2022-08-04T14:34:37;2.80;;;2.60;;
14205;SDS011;7186;48.800;9.216;2022-08-04T14:37:06;3.58;;;2.30;;
14205;SDS011;7186;48.800;9.216;2022-08-04T14:39:38;4.30;;;2.80;;
14205;SDS011;7186;48.800;9.216;2022-08-04T14:42:04;3.08;;;2.80;;
14205;SDS011;7186;48.800;9.216;2022-08-04T14:44:30;3.00;;;2.60;;
14205;SDS011;7186;48.800;9.216;2022-08-04T14:46:55;2.78;;;2.55;;
14205;SDS011;7186;48.800;9.216;2022-08-04T14:49:23;4.00;;;3.00;;
14205;SDS011;7186;48.800;9.216;2022-08-04T14:51:54;3.53;;;3.20;;
14205;SDS011;7186;48.800;9.216;2022-08-04T14:54:25;2.92;;;2.72;;
14205;SDS011;7186;48.800;9.216;2022-08-04T14:56:51;3.75;;;2.97;;
14205;SDS011;7186;48.800;9.216;2022-08-04T14:59:16;3.03;;;2.72;;
14205;SDS011;7186;48.800;9.216;2022-08-04T15:01:42;2.75;;;2.55;;
14205;SDS011;7186;48.800;9.216;2022-08-04T15:04:09;3.50;;;2.40;;
14205;SDS011;7186;48.800;9.216;2022-08-04T15:06:35;5.03;;;2.60;;
14205;SDS011;7186;48.800;9.216;2022-08-04T15:09:03;2.97;;;2.67;;
14205;SDS011;7186;48.800;9.216;2022-08-04T15:11:28;2.90;;;2.70;;
14205;SDS011;7186;48.800;9.216;2022-08-04T15:13:54;5.18;;;3.00;;
14205;SDS011;7186;48.800;9.216;2022-08-04T15:16:24;3.75;;;2.60;;
14205;SDS011;7186;48.800;9.216;2022-08-04T15:18:50;3.05;;;2.75;;
14205;SDS011;7186;48.800;9.216;2022-08-04T15:21:17;4.43;;;2.70;;
14205;SDS011;7186;48.800;9.216;2022-08-04T15:23:42;4.32;;;2.60;;
14205;SDS011;7186;48.800;9.216;2022-08-04T15:26:09;2.92;;;2.70;;
14205;SDS011;7186;48.800;9.216;2022-08-04T15:28:35;4.63;;;2.85;;
14205;SDS011;7186;48.800;9.216;2022-08-04T15:31:03;4.95;;;2.67;;
14205;SDS011;7186;48.800;9.216;2022-08-04T15:33:29;3.10;;;2.90;;
14205;SDS011;7186;48.800;9.216;2022-08-04T15:36:08;5.07;;;2.95;;
14205;SDS011;7186;48.800;9.216;2022-08-04T15:38:38;2.70;;;2.50;;
14205;SDS011;7186;48.800;9.216;2022-08-04T15:43:36;3.60;;;2.78;;
14205;SDS011;7186;48.800;9.216;2022-08-04T15:46:07;3.80;;;3.03;;
14205;SDS011;7186;48.800;9.216;2022-08-04T15:48:32;4.47;;;2.80;;
14205;SDS011;7186;48.800;9.216;2022-08-04T15:50:59;5.57;;;2.88;;
14205;SDS011;7186;48.800;9.216;2022-08-04T15:58:49;3.97;;;2.95;;
14205;SDS011;7186;48.800;9.216;2022-08-04T16:01:15;3.90;;;3.50;;
14205;SDS011;7186;48.800;9.216;2022-08-04T16:03:42;4.50;;;3.60;;
14205;SDS011;7186;48.800;9.216;2022-08-04T16:08:56;3.80;;;3.40;;
14205;SDS011;7186;48.800;9.216;2022-08-04T16:21:48;4.20;;;2.70;;
14205;SDS011;7186;48.800;9.216;2022-08-04T16:24:19;3.33;;;2.70;;
14205;SDS011;7186;48.800;9.216;2022-08-04T16:26:49;3.15;;;2.50;;
14205;SDS011;7186;48.800;9.216;2022-08-04T16:32:20;3.70;;;3.05;;
14205;SDS011;7186;48.800;9.216;2022-08-04T16:34:41;3.60;;;3.30;;
14205;SDS011;7186;48.800;9.216;2022-08-04T16:37:10;3.22;;;2.90;;
14205;SDS011;7186;48.800;9.216;2022-08-04T16:39:36;6.85;;;4.80;;
14205;SDS011;7186;48.800;9.216;2022-08-04T16:42:48;2.80;;;2.60;;
14205;SDS011;7186;48.800;9.216;2022-08-04T16:44:57;6.82;;;4.70;;
14205;SDS011;7186;48.800;9.216;2022-08-04T16:50:19;3.50;;;3.20;;
14205;SDS011;7186;48.800;9.216;2022-08-04T16:52:46;3.80;;;3.40;;
14205;SDS011;7186;48.800;9.216;2022-08-04T16:55:15;3.45;;;2.88;;
14205;SDS011;7186;48.800;9.216;2022-08-04T16:57:44;3.30;;;3.00;;
14205;SDS011;7186;48.800;9.216;2022-08-04T17:00:10;6.57;;;2.97;;
14205;SDS011;7186;48.800;9.216;2022-08-04T17:02:35;6.75;;;3.25;;
14205;SDS011;7186;48.800;9.216;2022-08-04T17:05:00;6.05;;;3.08;;
14205;SDS011;7186;48.800;9.216;2022-08-04T17:07:26;3.88;;;3.10;;
14205;SDS011;7186;48.800;9.216;2022-08-04T17:09:51;4.97;;;2.83;;
14205;SDS011;7186;48.800;9.216;2022-08-04T17:12:16;4.70;;;2.70;;
14205;SDS011;7186;48.800;9.216;2022-08-04T17:14:42;3.20;;;2.80;;
14205;SDS011;7186;48.800;9.216;2022-08-04T17:17:07;5.25;;;3.10;;
14205;SDS011;7186;48.800;9.216;2022-08-04T17:19:32;3.00;;;2.70;;
14205;SDS011;7186;48.800;9.216;2022-08-04T17:22:01;3.30;;;3.00;;
14205;SDS011;7186;48.800;9.216;2022-08-04T17:24:28;3.22;;;2.85;;
14205;SDS011;7186;48.800;9.216;2022-08-04T17:26:53;4.43;;;2.80;;
14205;SDS011;7186;48.800;9.216;2022-08-04T17:29:19;3.22;;;2.72;;
14205;SDS011;7186;48.800;9.216;2022-08-04T17:31:44;3.10;;;2.83;;
14205;SDS011;7186;48.800;9.216;2022-08-04T17:34:11;4.82;;;3.20;;
14205;SDS011;7186;48.800;9.216;2022-08-04T17:36:37;3.70;;;2.85;;
14205;SDS011;7186;48.800;9.216;2022-08-04T17:39:09;4.03;;;3.00;;
14205;SDS011;7186;48.800;9.216;2022-08-04T17:41:35;2.95;;;2.60;;
14205;SDS011;7186;48.800;9.216;2022-08-04T17:44:02;5.53;;;3.50;;
14205;SDS011;7186;48.800;9.216;2022-08-04T17:46:40;5.97;;;3.10;;
14205;SDS011;7186;48.800;9.216;2022-08-04T17:49:10;11.35;;;3.10;;
14205;SDS011;7186;48.800;9.216;2022-08-04T17:51:44;4.15;;;3.20;;
14205;SDS011;7186;48.800;9.216;2022-08-04T17:54:14;3.30;;;3.00;;
14205;SDS011;7186;48.800;9.216;2022-08-04T17:56:40;3.80;;;2.75;;
14205;SDS011;7186;48.800;9.216;2022-08-04T18:04:27;2.97;;;2.70;;
14205;SDS011;7186;48.800;9.216;2022-08-04T18:07:00;3.85;;;3.35;;
14205;SDS011;7186;48.800;9.216;2022-08-04T18:09:36;6.15;;;4.82;;
14205;SDS011;7186;48.800;9.216;2022-08-04T18:12:05;4.85;;;3.60;;
14205;SDS011;7186;48.800;9.216;2022-08-04T18:17:05;8.95;;;5.85;;
14205;SDS011;7186;48.800;9.216;2022-08-04T18:19:31;5.90;;;4.78;;
14205;SDS011;7186;48.800;9.216;2022-08-04T18:21:56;4.65;;;4.07;;
14205;SDS011;7186;48.800;9.216;2022-08-04T18:24:21;6.43;;;3.92;;
14205;SDS011;7186;48.800;9.216;2022-08-04T18:26:47;5.60;;;3.67;;
14205;SDS011;7186;48.800;9.216;2022-08-04T18:29:12;5.20;;;3.85;;
14205;SDS011;7186;48.800;9.216;2022-08-04T18:31:37;4.85;;;3.72;;
14205;SDS011;7186;48.800;9.216;2022-08-04T18:34:04;4.80;;;3.65;;
14205;SDS011;7186;48.800;9.216;2022-08-04T18:36:29;52.80;;;37.85;;
14205;SDS011;7186;48.800;9.216;2022-08-04T18:38:55;39.13;;;25.05;;
14205;SDS011;7186;48.800;9.216;2022-08-04T18:41:20;21.87;;;15.20;;
14205;SDS011;7186;48.800;9.216;2022-08-04T18:43:45;13.87;;;10.67;;
14205;SDS011;7186;48.800;9.216;2022-08-04T18:46:10;12.43;;;9.13;;
14205;SDS011;7186;48.800;9.216;2022-08-04T18:48:36;4.43;;;4.03;;
14205;SDS011;7186;48.800;9.216;2022-08-04T18:51:01;5.40;;;4.07;;
14205;SDS011;7186;48.800;9.216;2022-08-04T18:53:26;11.17;;;5.47;;
14205;SDS011;7186;48.800;9.216;2022-08-04T18:55:51;6.17;;;3.40;;
14205;SDS011;7186;48.800;9.216;2022-08-04T18:58:17;8.03;;;3.83;;
14205;SDS011;7186;48.800;9.216;2022-08-04T19:00:42;8.90;;;4.57;;
14205;SDS011;7186;48.800;9.216;2022-08-04T19:03:07;7.47;;;4.60;;
14205;SDS011;7186;48.800;9.216;2022-08-04T19:05:32;8.30;;;5.13;;
14205;SDS011;7186;48.800;9.216;2022-08-04T19:07:58;6.33;;;4.60;;
14205;SDS011;7186;48.800;9.216;2022-08-04T19:10:23;6.67;;;4.53;;
14205;SDS011;7186;48.800;9.216;2022-08-04T19:12:48;11.13;;;4.93;;
14205;SDS011;7186;48.800;9.216;2022-08-04T19:15:15;5.70;;;4.20;;
14205;SDS011;7186;48.800;9.216;2022-08-04T19:17:40;10.57;;;4.90;;
14205;SDS011;7186;48.800;9.216;2022-08-04T19:20:05;13.73;;;4.90;;
14205;SDS011;7186;48.800;9.216;2022-08-04T19:22:30;9.43;;;4.87;;